sensor_id;sensor_type;location;lat;lon;timestamp;P1;durP1;ratioP1;P2;durP2;ratioP2
24857;SDS011;12935;50.782;6.074;2022-08-14T00:00:14;33.03;;;16.40;;
24857;SDS011;12935;50.782;6.074;2022-08-14T00:02:41;21.33;;;15.63;;
24857;SDS011;12935;50.782;6.074;2022-08-14T00:05:07;39.03;;;16.90;;
24857;SDS011;12935;50.782;6.074;2022-08-14T00:07:35;45.37;;;16.83;;
24857;SDS011;12935;50.782;6.074;2022-08-14T00:10:01;48.10;;;16.30;;
24857;SDS011;12935;50.782;6.074;2022-08-14T00:12:30;40.27;;;15.60;;
24857;SDS011;12935;50.782;6.074;2022-08-14T00:14:57;36.23;;;15.70;;
24857;SDS011;12935;50.782;6.074;2022-08-14T00:17:22;29.63;;;13.60;;
24857;SDS011;12935;50.782;6.074;2022-08-14T00:19:48;24.67;;;15.50;;
24857;SDS011;12935;50.782;6.074;2022-08-14T00:22:13;47.90;;;17.60;;
24857;SDS011;12935;50.782;6.074;2022-08-14T00:24:42;21.27;;;15.33;;
24857;SDS011;12935;50.782;6.074;2022-08-14T00:27:08;42.63;;;16.03;;
24857;SDS011;12935;50.782;6.074;2022-08-14T00:29:34;29.13;;;15.40;;
24857;SDS011;12935;50.782;6.074;2022-08-14T00:31:59;35.70;;;15.93;;
24857;SDS011;12935;50.782;6.074;2022-08-14T00:34:25;40.13;;;17.07;;
24857;SDS011;12935;50.782;6.074;2022-08-14T00:36:50;21.70;;;13.40;;
24857;SDS011;12935;50.782;6.074;2022-08-14T00:39:16;36.90;;;17.50;;
24857;SDS011;12935;50.782;6.074;2022-08-14T00:41:41;49.50;;;17.10;;
24857;SDS011;12935;50.782;6.074;2022-08-14T00:44:07;29.37;;;15.40;;
24857;SDS011;12935;50.782;6.074;2022-08-14T00:46:32;36.97;;;15.90;;
24857;SDS011;12935;50.782;6.074;2022-08-14T00:48:58;39.00;;;15.43;;
24857;SDS011;12935;50.782;6.074;2022-08-14T00:51:23;19.63;;;13.97;;
24857;SDS011;12935;50.782;6.074;2022-08-14T00:53:49;21.97;;;13.77;;
24857;SDS011;12935;50.782;6.074;2022-08-14T00:56:15;33.87;;;16.53;;
24857;SDS011;12935;50.782;6.074;2022-08-14T00:58:41;31.63;;;15.07;;
24857;SDS011;12935;50.782;6.074;2022-08-14T01:01:07;27.40;;;14.03;;
24857;SDS011;12935;50.782;6.074;2022-08-14T01:03:35;23.53;;;14.60;;
24857;SDS011;12935;50.782;6.074;2022-08-14T01:06:03;27.37;;;14.93;;
24857;SDS011;12935;50.782;6.074;2022-08-14T01:08:33;32.20;;;14.47;;
24857;SDS011;12935;50.782;6.074;2022-08-14T01:11:00;23.60;;;14.50;;
24857;SDS011;12935;50.782;6.074;2022-08-14T01:13:27;28.83;;;14.80;;
24857;SDS011;12935;50.782;6.074;2022-08-14T01:15:57;21.57;;;13.67;;
24857;SDS011;12935;50.782;6.074;2022-08-14T01:18:25;19.80;;;13.23;;
24857;SDS011;12935;50.782;6.074;2022-08-14T01:21:10;23.27;;;15.97;;
24857;SDS011;12935;50.782;6.074;2022-08-14T01:23:40;29.37;;;15.37;;
24857;SDS011;12935;50.782;6.074;2022-08-14T01:26:10;17.87;;;13.60;;
24857;SDS011;12935;50.782;6.074;2022-08-14T01:28:38;29.43;;;14.90;;
24857;SDS011;12935;50.782;6.074;2022-08-14T01:31:05;30.47;;;14.87;;
24857;SDS011;12935;50.782;6.074;2022-08-14T01:33:32;22.40;;;14.70;;
24857;SDS011;12935;50.782;6.074;2022-08-14T01:35:59;32.30;;;16.17;;
24857;SDS011;12935;50.782;6.074;2022-08-14T01:38:28;26.23;;;13.90;;
24857;SDS011;12935;50.782;6.074;2022-08-14T01:41:06;37.47;;;15.23;;
24857;SDS011;12935;50.782;6.074;2022-08-14T01:43:44;31.87;;;15.20;;
24857;SDS011;12935;50.782;6.074;2022-08-14T01:46:20;29.17;;;14.53;;
24857;SDS011;12935;50.782;6.074;2022-08-14T01:48:47;24.17;;;13.37;;
24857;SDS011;12935;50.782;6.074;2022-08-14T01:51:16;32.63;;;15.90;;
24857;SDS011;12935;50.782;6.074;2022-08-14T01:53:45;20.60;;;13.60;;
24857;SDS011;12935;50.782;6.074;2022-08-14T01:56:14;20.77;;;13.70;;
24857;SDS011;12935;50.782;6.074;2022-08-14T01:58:44;29.27;;;14.70;;
24857;SDS011;12935;50.782;6.074;2022-08-14T02:01:13;22.53;;;13.60;;
24857;SDS011;12935;50.782;6.074;2022-08-14T02:03:42;25.03;;;14.33;;
24857;SDS011;12935;50.782;6.074;2022-08-14T02:06:09;49.53;;;17.47;;
24857;SDS011;12935;50.782;6.074;2022-08-14T02:08:35;40.57;;;15.63;;
24857;SDS011;12935;50.782;6.074;2022-08-14T02:11:02;31.30;;;15.00;;
24857;SDS011;12935;50.782;6.074;2022-08-14T02:13:51;18.73;;;13.80;;
24857;SDS011;12935;50.782;6.074;2022-08-14T02:16:25;27.73;;;14.47;;
24857;SDS011;12935;50.782;6.074;2022-08-14T02:18:55;21.23;;;14.00;;
24857;SDS011;12935;50.782;6.074;2022-08-14T02:21:21;22.63;;;14.10;;
24857;SDS011;12935;50.782;6.074;2022-08-14T02:23:48;31.43;;;15.50;;
24857;SDS011;12935;50.782;6.074;2022-08-14T02:26:18;15.27;;;13.50;;
24857;SDS011;12935;50.782;6.074;2022-08-14T02:28:53;42.77;;;16.20;;
24857;SDS011;12935;50.782;6.074;2022-08-14T02:31:24;14.03;;;12.60;;
24857;SDS011;12935;50.782;6.074;2022-08-14T02:33:55;18.23;;;13.77;;
24857;SDS011;12935;50.782;6.074;2022-08-14T02:36:21;20.57;;;13.40;;
24857;SDS011;12935;50.782;6.074;2022-08-14T02:38:46;23.53;;;14.53;;
24857;SDS011;12935;50.782;6.074;2022-08-14T02:41:13;23.50;;;14.70;;
24857;SDS011;12935;50.782;6.074;2022-08-14T02:43:39;26.20;;;14.53;;
24857;SDS011;12935;50.782;6.074;2022-08-14T02:46:06;15.10;;;13.20;;
24857;SDS011;12935;50.782;6.074;2022-08-14T02:48:33;19.47;;;13.83;;
24857;SDS011;12935;50.782;6.074;2022-08-14T02:51:00;20.07;;;14.73;;
24857;SDS011;12935;50.782;6.074;2022-08-14T02:53:28;31.53;;;16.67;;
24857;SDS011;12935;50.782;6.074;2022-08-14T02:55:54;25.53;;;14.27;;
24857;SDS011;12935;50.782;6.074;2022-08-14T02:58:20;24.33;;;14.40;;
24857;SDS011;12935;50.782;6.074;2022-08-14T03:00:47;21.30;;;12.77;;
24857;SDS011;12935;50.782;6.074;2022-08-14T03:03:13;38.67;;;15.47;;
24857;SDS011;12935;50.782;6.074;2022-08-14T03:05:40;15.53;;;12.90;;
24857;SDS011;12935;50.782;6.074;2022-08-14T03:08:10;27.17;;;14.77;;
24857;SDS011;12935;50.782;6.074;2022-08-14T03:10:37;20.73;;;13.90;;
24857;SDS011;12935;50.782;6.074;2022-08-14T03:13:02;20.27;;;13.90;;
24857;SDS011;12935;50.782;6.074;2022-08-14T03:15:31;23.50;;;13.80;;
24857;SDS011;12935;50.782;6.074;2022-08-14T03:18:00;34.50;;;14.47;;
24857;SDS011;12935;50.782;6.074;2022-08-14T03:20:26;19.50;;;14.10;;
24857;SDS011;12935;50.782;6.074;2022-08-14T03:22:52;21.03;;;13.93;;
24857;SDS011;12935;50.782;6.074;2022-08-14T03:25:18;24.70;;;14.00;;
24857;SDS011;12935;50.782;6.074;2022-08-14T03:27:46;25.10;;;14.30;;
24857;SDS011;12935;50.782;6.074;2022-08-14T03:30:11;26.93;;;14.83;;
24857;SDS011;12935;50.782;6.074;2022-08-14T03:32:36;27.27;;;14.93;;
24857;SDS011;12935;50.782;6.074;2022-08-14T03:35:02;31.70;;;14.67;;
24857;SDS011;12935;50.782;6.074;2022-08-14T03:37:28;24.03;;;13.53;;
24857;SDS011;12935;50.782;6.074;2022-08-14T03:39:53;22.30;;;13.10;;
24857;SDS011;12935;50.782;6.074;2022-08-14T03:42:19;47.17;;;16.93;;
24857;SDS011;12935;50.782;6.074;2022-08-14T03:44:45;35.47;;;15.40;;
24857;SDS011;12935;50.782;6.074;2022-08-14T03:47:12;23.27;;;14.40;;
24857;SDS011;12935;50.782;6.074;2022-08-14T03:49:37;19.83;;;13.03;;
24857;SDS011;12935;50.782;6.074;2022-08-14T03:52:04;15.50;;;13.30;;
24857;SDS011;12935;50.782;6.074;2022-08-14T03:54:30;36.37;;;14.37;;
24857;SDS011;12935;50.782;6.074;2022-08-14T03:57:00;23.10;;;12.80;;
24857;SDS011;12935;50.782;6.074;2022-08-14T03:59:26;27.70;;;13.47;;
24857;SDS011;12935;50.782;6.074;2022-08-14T04:01:51;27.80;;;14.30;;
24857;SDS011;12935;50.782;6.074;2022-08-14T04:04:17;29.83;;;14.17;;
24857;SDS011;12935;50.782;6.074;2022-08-14T04:06:42;44.50;;;15.87;;
24857;SDS011;12935;50.782;6.074;2022-08-14T04:09:07;15.97;;;13.37;;
24857;SDS011;12935;50.782;6.074;2022-08-14T04:11:34;23.83;;;13.40;;
24857;SDS011;12935;50.782;6.074;2022-08-14T04:14:00;26.53;;;12.60;;
24857;SDS011;12935;50.782;6.074;2022-08-14T04:16:26;23.47;;;13.17;;
24857;SDS011;12935;50.782;6.074;2022-08-14T04:18:52;19.60;;;13.37;;
24857;SDS011;12935;50.782;6.074;2022-08-14T04:21:19;21.77;;;12.87;;
24857;SDS011;12935;50.782;6.074;2022-08-14T04:23:50;21.37;;;12.40;;
24857;SDS011;12935;50.782;6.074;2022-08-14T04:26:16;21.47;;;13.90;;
24857;SDS011;12935;50.782;6.074;2022-08-14T04:28:45;38.77;;;15.30;;
24857;SDS011;12935;50.782;6.074;2022-08-14T04:31:13;17.03;;;12.20;;
24857;SDS011;12935;50.782;6.074;2022-08-14T04:33:39;29.33;;;13.40;;
24857;SDS011;12935;50.782;6.074;2022-08-14T04:36:05;58.97;;;18.10;;
24857;SDS011;12935;50.782;6.074;2022-08-14T04:38:30;38.07;;;14.90;;
24857;SDS011;12935;50.782;6.074;2022-08-14T04:41:14;22.90;;;12.97;;
24857;SDS011;12935;50.782;6.074;2022-08-14T04:44:18;20.60;;;13.03;;
24857;SDS011;12935;50.782;6.074;2022-08-14T04:46:44;68.07;;;13.90;;
24857;SDS011;12935;50.782;6.074;2022-08-14T04:49:30;24.30;;;14.17;;
24857;SDS011;12935;50.782;6.074;2022-08-14T04:51:56;31.33;;;14.47;;
24857;SDS011;12935;50.782;6.074;2022-08-14T04:54:22;18.30;;;14.20;;
24857;SDS011;12935;50.782;6.074;2022-08-14T04:56:50;20.83;;;13.13;;
24857;SDS011;12935;50.782;6.074;2022-08-14T04:59:16;19.67;;;13.40;;
24857;SDS011;12935;50.782;6.074;2022-08-14T05:01:41;31.67;;;14.90;;
24857;SDS011;12935;50.782;6.074;2022-08-14T05:04:08;42.13;;;15.73;;
24857;SDS011;12935;50.782;6.074;2022-08-14T05:06:34;15.17;;;13.07;;
24857;SDS011;12935;50.782;6.074;2022-08-14T05:08:59;23.03;;;13.60;;
24857;SDS011;12935;50.782;6.074;2022-08-14T05:11:24;33.67;;;14.57;;
24857;SDS011;12935;50.782;6.074;2022-08-14T05:13:50;25.40;;;13.87;;
24857;SDS011;12935;50.782;6.074;2022-08-14T05:16:15;17.80;;;12.67;;
24857;SDS011;12935;50.782;6.074;2022-08-14T05:18:41;32.73;;;14.03;;
24857;SDS011;12935;50.782;6.074;2022-08-14T05:21:08;18.30;;;14.33;;
24857;SDS011;12935;50.782;6.074;2022-08-14T05:23:35;24.90;;;14.27;;
24857;SDS011;12935;50.782;6.074;2022-08-14T05:26:02;28.27;;;13.40;;
24857;SDS011;12935;50.782;6.074;2022-08-14T05:28:30;17.03;;;12.73;;
24857;SDS011;12935;50.782;6.074;2022-08-14T05:30:59;23.10;;;13.13;;
24857;SDS011;12935;50.782;6.074;2022-08-14T05:33:26;25.63;;;13.87;;
24857;SDS011;12935;50.782;6.074;2022-08-14T05:35:55;25.23;;;14.77;;
24857;SDS011;12935;50.782;6.074;2022-08-14T05:38:29;17.93;;;13.30;;
24857;SDS011;12935;50.782;6.074;2022-08-14T05:40:58;19.57;;;13.50;;
24857;SDS011;12935;50.782;6.074;2022-08-14T05:43:26;35.77;;;14.83;;
24857;SDS011;12935;50.782;6.074;2022-08-14T05:45:51;40.37;;;14.73;;
24857;SDS011;12935;50.782;6.074;2022-08-14T05:48:17;31.47;;;14.53;;
24857;SDS011;12935;50.782;6.074;2022-08-14T05:50:42;37.27;;;14.93;;
24857;SDS011;12935;50.782;6.074;2022-08-14T05:53:08;21.87;;;14.70;;
24857;SDS011;12935;50.782;6.074;2022-08-14T05:55:33;34.87;;;14.20;;
24857;SDS011;12935;50.782;6.074;2022-08-14T05:57:59;23.67;;;14.77;;
24857;SDS011;12935;50.782;6.074;2022-08-14T06:00:28;20.43;;;13.97;;
24857;SDS011;12935;50.782;6.074;2022-08-14T06:02:56;27.87;;;13.47;;
24857;SDS011;12935;50.782;6.074;2022-08-14T06:05:23;21.17;;;13.37;;
24857;SDS011;12935;50.782;6.074;2022-08-14T06:07:49;23.50;;;14.50;;
24857;SDS011;12935;50.782;6.074;2022-08-14T06:10:15;26.10;;;13.90;;
24857;SDS011;12935;50.782;6.074;2022-08-14T06:12:40;18.63;;;13.67;;
24857;SDS011;12935;50.782;6.074;2022-08-14T06:15:06;22.10;;;14.37;;
24857;SDS011;12935;50.782;6.074;2022-08-14T06:17:46;42.10;;;15.23;;
24857;SDS011;12935;50.782;6.074;2022-08-14T06:20:13;19.20;;;13.20;;
24857;SDS011;12935;50.782;6.074;2022-08-14T06:22:40;17.60;;;13.40;;
24857;SDS011;12935;50.782;6.074;2022-08-14T06:25:07;14.17;;;12.77;;
24857;SDS011;12935;50.782;6.074;2022-08-14T06:27:40;25.43;;;13.80;;
24857;SDS011;12935;50.782;6.074;2022-08-14T06:30:08;30.83;;;15.20;;
24857;SDS011;12935;50.782;6.074;2022-08-14T06:32:35;18.30;;;13.70;;
24857;SDS011;12935;50.782;6.074;2022-08-14T06:35:01;23.00;;;14.73;;
24857;SDS011;12935;50.782;6.074;2022-08-14T06:40:05;40.63;;;16.97;;
24857;SDS011;12935;50.782;6.074;2022-08-14T06:42:32;29.37;;;15.70;;
24857;SDS011;12935;50.782;6.074;2022-08-14T06:44:57;20.23;;;14.00;;
24857;SDS011;12935;50.782;6.074;2022-08-14T06:47:25;27.73;;;14.17;;
24857;SDS011;12935;50.782;6.074;2022-08-14T06:49:51;28.33;;;15.40;;
24857;SDS011;12935;50.782;6.074;2022-08-14T06:52:16;26.43;;;14.80;;
24857;SDS011;12935;50.782;6.074;2022-08-14T06:54:42;33.73;;;15.23;;
24857;SDS011;12935;50.782;6.074;2022-08-14T06:57:08;23.77;;;14.87;;
24857;SDS011;12935;50.782;6.074;2022-08-14T06:59:33;24.93;;;15.93;;
24857;SDS011;12935;50.782;6.074;2022-08-14T07:01:58;25.33;;;14.47;;
24857;SDS011;12935;50.782;6.074;2022-08-14T07:04:42;26.70;;;14.87;;
24857;SDS011;12935;50.782;6.074;2022-08-14T07:07:33;43.47;;;17.53;;
24857;SDS011;12935;50.782;6.074;2022-08-14T07:10:02;23.40;;;14.90;;
24857;SDS011;12935;50.782;6.074;2022-08-14T07:12:29;35.20;;;16.97;;
24857;SDS011;12935;50.782;6.074;2022-08-14T07:14:54;41.43;;;17.30;;
24857;SDS011;12935;50.782;6.074;2022-08-14T07:17:19;29.23;;;16.43;;
24857;SDS011;12935;50.782;6.074;2022-08-14T07:19:45;39.63;;;18.87;;
24857;SDS011;12935;50.782;6.074;2022-08-14T07:22:10;34.27;;;18.63;;
24857;SDS011;12935;50.782;6.074;2022-08-14T07:24:35;27.53;;;18.10;;
24857;SDS011;12935;50.782;6.074;2022-08-14T07:27:00;33.77;;;17.73;;
24857;SDS011;12935;50.782;6.074;2022-08-14T07:29:26;28.20;;;16.90;;
24857;SDS011;12935;50.782;6.074;2022-08-14T07:31:51;23.20;;;18.70;;
24857;SDS011;12935;50.782;6.074;2022-08-14T07:34:16;24.57;;;18.63;;
24857;SDS011;12935;50.782;6.074;2022-08-14T07:36:42;34.80;;;18.20;;
24857;SDS011;12935;50.782;6.074;2022-08-14T07:39:08;28.40;;;17.97;;
24857;SDS011;12935;50.782;6.074;2022-08-14T07:41:33;34.87;;;16.70;;
24857;SDS011;12935;50.782;6.074;2022-08-14T07:43:58;21.87;;;17.77;;
24857;SDS011;12935;50.782;6.074;2022-08-14T07:46:23;30.73;;;18.67;;
24857;SDS011;12935;50.782;6.074;2022-08-14T07:48:49;33.47;;;19.60;;
24857;SDS011;12935;50.782;6.074;2022-08-14T07:51:14;43.67;;;20.00;;
24857;SDS011;12935;50.782;6.074;2022-08-14T07:53:39;24.50;;;17.47;;
24857;SDS011;12935;50.782;6.074;2022-08-14T07:56:05;34.77;;;20.30;;
24857;SDS011;12935;50.782;6.074;2022-08-14T07:58:30;25.67;;;17.87;;
24857;SDS011;12935;50.782;6.074;2022-08-14T08:00:57;34.97;;;19.17;;
24857;SDS011;12935;50.782;6.074;2022-08-14T08:03:24;18.47;;;16.77;;
24857;SDS011;12935;50.782;6.074;2022-08-14T08:05:51;27.30;;;18.37;;
24857;SDS011;12935;50.782;6.074;2022-08-14T08:08:17;20.90;;;18.43;;
24857;SDS011;12935;50.782;6.074;2022-08-14T08:10:44;22.23;;;19.13;;
24857;SDS011;12935;50.782;6.074;2022-08-14T08:13:11;34.00;;;19.60;;
24857;SDS011;12935;50.782;6.074;2022-08-14T08:15:43;20.87;;;18.90;;
24857;SDS011;12935;50.782;6.074;2022-08-14T08:18:11;44.70;;;20.73;;
24857;SDS011;12935;50.782;6.074;2022-08-14T08:20:45;33.70;;;19.37;;
24857;SDS011;12935;50.782;6.074;2022-08-14T08:23:15;20.03;;;17.70;;
24857;SDS011;12935;50.782;6.074;2022-08-14T08:25:43;32.63;;;19.10;;
24857;SDS011;12935;50.782;6.074;2022-08-14T08:28:12;23.20;;;18.47;;
24857;SDS011;12935;50.782;6.074;2022-08-14T08:30:40;21.00;;;17.30;;
24857;SDS011;12935;50.782;6.074;2022-08-14T08:33:07;35.93;;;19.37;;
24857;SDS011;12935;50.782;6.074;2022-08-14T08:35:37;31.70;;;18.83;;
24857;SDS011;12935;50.782;6.074;2022-08-14T08:38:06;32.90;;;19.30;;
24857;SDS011;12935;50.782;6.074;2022-08-14T08:40:35;20.70;;;18.80;;
24857;SDS011;12935;50.782;6.074;2022-08-14T08:43:07;24.17;;;19.90;;
24857;SDS011;12935;50.782;6.074;2022-08-14T08:45:40;23.43;;;19.03;;
24857;SDS011;12935;50.782;6.074;2022-08-14T08:48:06;27.80;;;20.43;;
24857;SDS011;12935;50.782;6.074;2022-08-14T08:50:33;20.90;;;18.50;;
24857;SDS011;12935;50.782;6.074;2022-08-14T08:53:01;21.90;;;19.53;;
24857;SDS011;12935;50.782;6.074;2022-08-14T08:58:06;29.07;;;21.47;;
24857;SDS011;12935;50.782;6.074;2022-08-14T09:00:34;21.23;;;19.20;;
24857;SDS011;12935;50.782;6.074;2022-08-14T09:03:02;22.30;;;19.90;;
24857;SDS011;12935;50.782;6.074;2022-08-14T09:05:28;38.83;;;21.93;;
24857;SDS011;12935;50.782;6.074;2022-08-14T09:08:07;21.80;;;19.50;;
24857;SDS011;12935;50.782;6.074;2022-08-14T09:10:43;22.53;;;19.77;;
24857;SDS011;12935;50.782;6.074;2022-08-14T09:13:09;21.17;;;18.93;;
24857;SDS011;12935;50.782;6.074;2022-08-14T09:15:39;54.03;;;22.93;;
24857;SDS011;12935;50.782;6.074;2022-08-14T09:18:06;61.90;;;23.80;;
24857;SDS011;12935;50.782;6.074;2022-08-14T09:20:33;32.53;;;20.23;;
24857;SDS011;12935;50.782;6.074;2022-08-14T09:22:58;28.07;;;20.10;;
24857;SDS011;12935;50.782;6.074;2022-08-14T09:25:24;35.77;;;20.57;;
24857;SDS011;12935;50.782;6.074;2022-08-14T09:27:50;41.23;;;23.03;;
24857;SDS011;12935;50.782;6.074;2022-08-14T09:30:15;29.73;;;20.87;;
24857;SDS011;12935;50.782;6.074;2022-08-14T09:33:28;36.00;;;20.80;;
24857;SDS011;12935;50.782;6.074;2022-08-14T09:38:53;27.37;;;21.40;;
24857;SDS011;12935;50.782;6.074;2022-08-14T09:41:46;32.00;;;20.10;;
24857;SDS011;12935;50.782;6.074;2022-08-14T09:50:18;29.13;;;20.63;;
24857;SDS011;12935;50.782;6.074;2022-08-14T09:52:47;20.33;;;18.43;;
24857;SDS011;12935;50.782;6.074;2022-08-14T09:55:21;22.33;;;18.77;;
24857;SDS011;12935;50.782;6.074;2022-08-14T09:57:48;33.17;;;20.70;;
24857;SDS011;12935;50.782;6.074;2022-08-14T10:00:15;35.57;;;19.60;;
24857;SDS011;12935;50.782;6.074;2022-08-14T10:02:53;22.53;;;20.37;;
24857;SDS011;12935;50.782;6.074;2022-08-14T10:05:36;36.60;;;21.33;;
24857;SDS011;12935;50.782;6.074;2022-08-14T10:08:03;31.87;;;20.30;;
24857;SDS011;12935;50.782;6.074;2022-08-14T10:10:31;20.60;;;18.03;;
24857;SDS011;12935;50.782;6.074;2022-08-14T10:13:00;21.60;;;18.67;;
24857;SDS011;12935;50.782;6.074;2022-08-14T10:15:27;29.07;;;20.20;;
24857;SDS011;12935;50.782;6.074;2022-08-14T10:18:08;34.23;;;19.87;;
24857;SDS011;12935;50.782;6.074;2022-08-14T10:20:39;30.73;;;20.63;;
24857;SDS011;12935;50.782;6.074;2022-08-14T10:23:42;32.40;;;21.33;;
24857;SDS011;12935;50.782;6.074;2022-08-14T10:26:10;22.90;;;17.33;;
24857;SDS011;12935;50.782;6.074;2022-08-14T10:28:39;33.03;;;19.33;;
24857;SDS011;12935;50.782;6.074;2022-08-14T10:36:36;33.83;;;21.63;;
24857;SDS011;12935;50.782;6.074;2022-08-14T10:39:03;24.17;;;19.57;;
24857;SDS011;12935;50.782;6.074;2022-08-14T10:41:41;39.97;;;21.57;;
24857;SDS011;12935;50.782;6.074;2022-08-14T10:46:45;23.40;;;19.60;;
24857;SDS011;12935;50.782;6.074;2022-08-14T10:49:17;29.67;;;20.43;;
24857;SDS011;12935;50.782;6.074;2022-08-14T10:54:32;23.90;;;17.90;;
24857;SDS011;12935;50.782;6.074;2022-08-14T11:05:02;22.90;;;18.23;;
24857;SDS011;12935;50.782;6.074;2022-08-14T11:07:28;23.87;;;20.00;;
24857;SDS011;12935;50.782;6.074;2022-08-14T11:09:58;32.07;;;19.83;;
24857;SDS011;12935;50.782;6.074;2022-08-14T11:12:25;49.93;;;21.13;;
24857;SDS011;12935;50.782;6.074;2022-08-14T11:15:02;23.13;;;19.20;;
24857;SDS011;12935;50.782;6.074;2022-08-14T11:17:29;28.47;;;19.53;;
24857;SDS011;12935;50.782;6.074;2022-08-14T11:19:57;27.87;;;19.87;;
24857;SDS011;12935;50.782;6.074;2022-08-14T11:22:25;66.37;;;21.80;;
24857;SDS011;12935;50.782;6.074;2022-08-14T11:24:52;35.80;;;19.13;;
24857;SDS011;12935;50.782;6.074;2022-08-14T11:27:20;28.67;;;18.67;;
24857;SDS011;12935;50.782;6.074;2022-08-14T11:29:49;41.30;;;20.73;;
24857;SDS011;12935;50.782;6.074;2022-08-14T11:32:15;47.17;;;21.40;;
24857;SDS011;12935;50.782;6.074;2022-08-14T11:34:43;30.40;;;19.13;;
24857;SDS011;12935;50.782;6.074;2022-08-14T11:37:10;36.20;;;19.30;;
24857;SDS011;12935;50.782;6.074;2022-08-14T11:39:35;25.43;;;18.03;;
24857;SDS011;12935;50.782;6.074;2022-08-14T11:42:01;18.90;;;17.00;;
24857;SDS011;12935;50.782;6.074;2022-08-14T11:44:28;28.13;;;18.10;;
24857;SDS011;12935;50.782;6.074;2022-08-14T11:46:53;23.93;;;16.13;;
24857;SDS011;12935;50.782;6.074;2022-08-14T11:49:28;30.70;;;18.47;;
24857;SDS011;12935;50.782;6.074;2022-08-14T11:51:55;23.80;;;18.03;;
24857;SDS011;12935;50.782;6.074;2022-08-14T11:54:20;22.57;;;16.03;;
24857;SDS011;12935;50.782;6.074;2022-08-14T11:56:46;27.87;;;18.33;;
24857;SDS011;12935;50.782;6.074;2022-08-14T11:59:16;28.37;;;17.10;;
24857;SDS011;12935;50.782;6.074;2022-08-14T12:01:42;31.67;;;17.80;;
24857;SDS011;12935;50.782;6.074;2022-08-14T12:04:12;34.60;;;18.10;;
24857;SDS011;12935;50.782;6.074;2022-08-14T12:06:48;27.17;;;16.80;;
24857;SDS011;12935;50.782;6.074;2022-08-14T12:09:35;22.60;;;15.90;;
24857;SDS011;12935;50.782;6.074;2022-08-14T12:14:51;19.80;;;15.67;;
24857;SDS011;12935;50.782;6.074;2022-08-14T12:17:28;29.13;;;16.60;;
24857;SDS011;12935;50.782;6.074;2022-08-14T12:20:01;24.33;;;16.10;;
24857;SDS011;12935;50.782;6.074;2022-08-14T12:24:58;18.87;;;15.57;;
24857;SDS011;12935;50.782;6.074;2022-08-14T12:27:41;23.17;;;14.87;;
24857;SDS011;12935;50.782;6.074;2022-08-14T12:30:08;22.87;;;17.47;;
24857;SDS011;12935;50.782;6.074;2022-08-14T12:32:38;32.80;;;17.10;;
24857;SDS011;12935;50.782;6.074;2022-08-14T12:35:07;25.37;;;16.43;;
24857;SDS011;12935;50.782;6.074;2022-08-14T12:37:34;23.07;;;16.23;;
24857;SDS011;12935;50.782;6.074;2022-08-14T12:40:35;22.57;;;17.07;;
24857;SDS011;12935;50.782;6.074;2022-08-14T12:42:58;37.20;;;18.17;;
24857;SDS011;12935;50.782;6.074;2022-08-14T12:45:31;25.50;;;17.37;;
24857;SDS011;12935;50.782;6.074;2022-08-14T12:47:58;19.33;;;17.33;;
24857;SDS011;12935;50.782;6.074;2022-08-14T12:50:39;18.67;;;16.07;;
24857;SDS011;12935;50.782;6.074;2022-08-14T12:53:05;38.97;;;18.63;;
24857;SDS011;12935;50.782;6.074;2022-08-14T12:55:32;23.80;;;15.60;;
24857;SDS011;12935;50.782;6.074;2022-08-14T12:58:00;19.10;;;16.13;;
24857;SDS011;12935;50.782;6.074;2022-08-14T13:00:29;29.77;;;17.73;;
24857;SDS011;12935;50.782;6.074;2022-08-14T13:02:55;21.93;;;17.13;;
24857;SDS011;12935;50.782;6.074;2022-08-14T13:05:22;33.73;;;18.33;;
24857;SDS011;12935;50.782;6.074;2022-08-14T13:07:49;27.27;;;17.57;;
24857;SDS011;12935;50.782;6.074;2022-08-14T13:10:16;32.13;;;18.10;;
24857;SDS011;12935;50.782;6.074;2022-08-14T13:12:44;26.33;;;18.03;;
24857;SDS011;12935;50.782;6.074;2022-08-14T13:15:11;36.50;;;19.27;;
24857;SDS011;12935;50.782;6.074;2022-08-14T13:17:46;24.53;;;17.40;;
24857;SDS011;12935;50.782;6.074;2022-08-14T13:20:14;30.27;;;17.93;;
24857;SDS011;12935;50.782;6.074;2022-08-14T13:22:40;32.80;;;18.20;;
24857;SDS011;12935;50.782;6.074;2022-08-14T13:25:13;22.77;;;18.10;;
24857;SDS011;12935;50.782;6.074;2022-08-14T13:27:40;34.73;;;18.70;;
24857;SDS011;12935;50.782;6.074;2022-08-14T13:30:09;40.83;;;18.73;;
24857;SDS011;12935;50.782;6.074;2022-08-14T13:32:35;31.50;;;16.63;;
24857;SDS011;12935;50.782;6.074;2022-08-14T13:35:04;30.63;;;17.60;;
24857;SDS011;12935;50.782;6.074;2022-08-14T13:37:31;23.20;;;15.57;;
24857;SDS011;12935;50.782;6.074;2022-08-14T13:39:56;20.60;;;14.60;;
24857;SDS011;12935;50.782;6.074;2022-08-14T13:42:22;46.50;;;18.80;;
24857;SDS011;12935;50.782;6.074;2022-08-14T13:44:52;16.43;;;14.47;;
24857;SDS011;12935;50.782;6.074;2022-08-14T13:47:20;22.67;;;16.33;;
24857;SDS011;12935;50.782;6.074;2022-08-14T13:49:46;40.57;;;17.30;;
24857;SDS011;12935;50.782;6.074;2022-08-14T13:52:13;30.27;;;15.97;;
24857;SDS011;12935;50.782;6.074;2022-08-14T13:54:43;31.83;;;16.17;;
24857;SDS011;12935;50.782;6.074;2022-08-14T13:57:10;23.07;;;15.10;;
24857;SDS011;12935;50.782;6.074;2022-08-14T13:59:36;33.43;;;18.03;;
24857;SDS011;12935;50.782;6.074;2022-08-14T14:02:07;30.53;;;17.23;;
24857;SDS011;12935;50.782;6.074;2022-08-14T14:04:34;30.03;;;16.20;;
24857;SDS011;12935;50.782;6.074;2022-08-14T14:07:03;18.60;;;15.43;;
24857;SDS011;12935;50.782;6.074;2022-08-14T14:09:32;19.07;;;15.00;;
24857;SDS011;12935;50.782;6.074;2022-08-14T14:11:59;22.27;;;15.70;;
24857;SDS011;12935;50.782;6.074;2022-08-14T14:14:25;29.63;;;16.67;;
24857;SDS011;12935;50.782;6.074;2022-08-14T14:16:51;21.80;;;16.17;;
24857;SDS011;12935;50.782;6.074;2022-08-14T14:19:19;39.93;;;19.20;;
24857;SDS011;12935;50.782;6.074;2022-08-14T14:21:48;26.00;;;17.20;;
24857;SDS011;12935;50.782;6.074;2022-08-14T14:24:14;29.57;;;17.67;;
24857;SDS011;12935;50.782;6.074;2022-08-14T14:26:40;26.20;;;17.43;;
24857;SDS011;12935;50.782;6.074;2022-08-14T14:29:09;25.37;;;18.20;;
24857;SDS011;12935;50.782;6.074;2022-08-14T14:31:37;31.53;;;18.47;;
24857;SDS011;12935;50.782;6.074;2022-08-14T14:34:05;26.53;;;18.90;;
24857;SDS011;12935;50.782;6.074;2022-08-14T14:36:36;19.87;;;17.73;;
24857;SDS011;12935;50.782;6.074;2022-08-14T14:39:05;29.43;;;18.87;;
24857;SDS011;12935;50.782;6.074;2022-08-14T14:41:38;33.53;;;19.37;;
24857;SDS011;12935;50.782;6.074;2022-08-14T14:44:05;20.80;;;18.57;;
24857;SDS011;12935;50.782;6.074;2022-08-14T14:46:36;24.20;;;19.13;;
24857;SDS011;12935;50.782;6.074;2022-08-14T14:49:03;29.83;;;20.17;;
24857;SDS011;12935;50.782;6.074;2022-08-14T14:51:30;35.17;;;19.57;;
24857;SDS011;12935;50.782;6.074;2022-08-14T14:53:56;44.10;;;21.97;;
24857;SDS011;12935;50.782;6.074;2022-08-14T14:56:21;29.70;;;20.80;;
24857;SDS011;12935;50.782;6.074;2022-08-14T14:58:48;25.47;;;17.83;;
24857;SDS011;12935;50.782;6.074;2022-08-14T15:01:14;41.60;;;21.10;;
24857;SDS011;12935;50.782;6.074;2022-08-14T15:03:47;37.20;;;19.87;;
24857;SDS011;12935;50.782;6.074;2022-08-14T15:06:14;40.43;;;20.17;;